KLIT/LIT METAR and TAF weather

Enter ICAO airport designator
Station Type Date Time Source
KLIT METAR 2019/09/21 21:53 UTC NOAA

KLIT 212153Z 15011KT 10SM FEW045 FEW150 SCT250 31/16 A3008 RMK AO2 SLP185 T03060161


Station Type Date Time Source
KLIT Decoded METAR 2019/09/21 21:53 UTC NOAA

LITTLE ROCK ADAMS FIELD, AR, United States (KLIT) 34-44N 92-14W 79M
Sep 21, 2019 - 05:53 PM EDT / 2019.09.21 2153 UTC
Wind: from the SSE (150 degrees) at 13 MPH (11 KT):0
Visibility: 10 mile(s):0
Sky conditions: partly cloudy
Temperature: 87.1 F (30.6 C)
Dew Point: 61.0 F (16.1 C)
Relative Humidity: 41%
Pressure (altimeter): 30.08 in. Hg (1018 hPa)
ob: KLIT 212153Z 15011KT 10SM FEW045 FEW150 SCT250 31/16 A3008 RMK AO2 SLP185 T03060161
cycle: 22

Station Type Date Time Source
KLIT TAF 2019/09/21 18:42 UTC NOAA

TAF KLIT 211740Z 2118/2218 17012G18KT P6SM SCT050 BKN250
FM220000 15006KT P6SM BKN100
FM221200 20006KT P6SM BKN250

Example: see airport list